Kings Canyon, California
Current Conditions -  °F | °C
As of 12:56 PM on Saturday 25 Oct 2014 (Local Time) from KBIH Reporting Station
Clear Clear  
Wind Chill: 79°   Ceiling: Unl
Heat Index: 79°   Visibility: 10mi
Dew Point: 13°   Wind: 18mph
Humidity: 8%   Direction: 130°SE
Pressure: 29.95"   Gusts: 29mph
Location:  36.7872°N, 118.66°W
Report Text: KBIH 251956Z AUTO 13016G25KT 10SM CLR 26/M11 A2995 RMK AO2 PK WND 17027/1859 SLP095 T02611106
Loading
Personal Weather Stations






























Interactive Weather Map
Tropical Storm Tracking
New forecast layout! Learn more

10-Day Weather Forecast

Advertisements
Track Severe Weather on mobile